Time;durP1;ratioP1;P1;durP2;ratioP2;P2;SDS_P1;SDS_P2;PMS_P1;PMS_P2;Temp;Humidity;BMP_temperature;BMP_pressure;BME280_temperature;BME280_humidity;BME280_pressure;Samples;Min_cycle;Max_cycle;Signal;HPM_P1;HPM_P2
2022/01/27 00:02:44;;;;;;;94.72;39.22;;;;;;;3.84;100.00;102030.81;10025563;28;20147;-63
2022/01/27 00:07:42;;;;;;;93.00;38.25;;;;;;;3.84;100.00;102031.63;10043221;28;20643;-63
2022/01/27 00:12:41;;;;;;;85.88;34.35;;;;;;;3.90;100.00;102019.84;10034937;28;20044;-63
2022/01/27 00:17:55;;;;;;;101.93;39.20;;;;;;;3.89;100.00;102007.34;10025351;28;20671;-66
2022/01/27 00:22:53;;;;;;;93.05;38.60;;;;;;;3.92;100.00;101996.06;10020296;29;20541;-66
2022/01/27 00:27:49;;;;;;;89.35;38.47;;;;;;;3.96;100.00;101964.72;10053830;28;20066;-65
2022/01/27 00:32:46;;;;;;;86.45;37.40;;;;;;;3.95;100.00;101940.66;10039343;29;20127;-67
2022/01/27 00:37:42;;;;;;;85.60;35.05;;;;;;;3.94;100.00;101928.97;10033415;28;20040;-65
2022/01/27 00:42:40;;;;;;;92.97;36.20;;;;;;;3.94;100.00;101918.16;10028433;28;20107;-65
2022/01/27 00:47:36;;;;;;;84.25;34.75;;;;;;;3.97;100.00;101920.38;10038918;28;20040;-64
2022/01/27 00:52:39;;;;;;;96.47;40.08;;;;;;;3.95;100.00;101903.56;10025063;28;20557;-64
2022/01/27 00:57:51;;;;;;;91.53;41.03;;;;;;;3.96;100.00;101894.38;10043690;28;20498;-65
2022/01/27 01:03:15;;;;;;;92.00;41.25;;;;;;;4.06;100.00;101887.50;10008223;29;20083;-65
2022/01/27 01:09:16;;;;;;;91.65;38.78;;;;;;;3.97;100.00;101893.31;10045565;28;20055;-65
2022/01/27 01:34:13;;;;;;;91.32;41.95;;;;;;;3.92;100.00;101838.28;10027962;28;20173;-65
2022/01/27 01:39:12;;;;;;;89.07;40.43;;;;;;;3.90;100.00;101825.03;10019103;28;20056;-66
2022/01/27 01:44:09;;;;;;;81.70;35.67;;;;;;;3.87;100.00;101825.50;10035302;29;20044;-66
2022/01/27 01:49:06;;;;;;;96.68;40.40;;;;;;;3.86;100.00;101823.88;10029165;28;20140;-65
2022/01/27 01:54:03;;;;;;;93.93;39.10;;;;;;;3.89;100.00;101817.94;10016288;28;20045;-65
2022/01/27 01:58:59;;;;;;;96.97;44.10;;;;;;;3.90;100.00;101800.66;10039931;28;20104;-63
2022/01/27 02:03:56;;;;;;;81.25;37.90;;;;;;;3.94;100.00;101793.66;10031078;29;20742;-63
2022/01/27 02:19:27;;;;;;;76.10;36.13;;;;;;;4.00;100.00;101798.09;10035064;28;20052;-67
2022/01/27 02:24:25;;;;;;;65.82;32.42;;;;;;;4.04;100.00;101786.78;10014520;29;20047;-62
2022/01/27 02:29:22;;;;;;;62.97;28.80;;;;;;;4.05;100.00;101769.50;10037068;28;20244;-62
2022/01/27 02:34:19;;;;;;;65.88;32.53;;;;;;;4.12;100.00;101772.84;10027333;29;20466;-61
2022/01/27 02:39:16;;;;;;;62.60;30.67;;;;;;;4.07;100.00;101737.59;10011008;29;20056;-62
2022/01/27 02:44:38;;;;;;;55.67;26.25;;;;;;;4.12;100.00;101729.53;10046320;29;20119;-62
2022/01/27 02:49:35;;;;;;;59.83;30.25;;;;;;;4.16;100.00;101709.84;10020071;28;20052;-62
2022/01/27 02:54:31;;;;;;;66.93;32.97;;;;;;;4.18;100.00;101717.72;10022789;29;20051;-64
2022/01/27 02:59:48;;;;;;;62.47;29.10;;;;;;;4.22;100.00;101738.63;10012813;28;20398;-64
2022/01/27 03:04:45;;;;;;;57.08;28.98;;;;;;;4.21;100.00;101723.44;10022205;28;20075;-64
2022/01/27 03:09:42;;;;;;;50.78;24.80;;;;;;;4.24;100.00;101711.28;10025981;28;20043;-64
2022/01/27 03:14:40;;;;;;;57.35;24.58;;;;;;;4.19;100.00;101700.41;10038668;29;20088;-64
2022/01/27 03:19:37;;;;;;;62.47;28.23;;;;;;;4.26;100.00;101698.31;10030221;28;20087;-62
2022/01/27 03:24:35;;;;;;;45.40;22.15;;;;;;;4.23;100.00;101704.25;10037487;28;20047;-63
2022/01/27 03:29:31;;;;;;;60.97;28.48;;;;;;;4.23;100.00;101677.19;10044991;28;20071;-66
2022/01/27 03:34:28;;;;;;;80.88;31.42;;;;;;;4.24;100.00;101665.25;10019489;29;20110;-66
2022/01/27 03:39:26;;;;;;;59.85;27.35;;;;;;;4.31;100.00;101649.63;10043949;28;20130;-64
2022/01/27 03:44:23;;;;;;;56.42;26.95;;;;;;;4.23;100.00;101652.81;10036780;28;20055;-63
2022/01/27 03:49:20;;;;;;;56.85;29.50;;;;;;;4.24;100.00;101659.84;10032586;28;20562;-64
2022/01/27 03:54:16;;;;;;;63.72;26.45;;;;;;;4.13;100.00;101631.00;10007714;29;20076;-63
2022/01/27 03:59:13;;;;;;;62.80;28.70;;;;;;;4.05;100.00;101615.22;10032474;28;20052;-66
2022/01/27 04:04:09;;;;;;;64.55;29.98;;;;;;;3.99;100.00;101620.59;10009200;29;20054;-64
2022/01/27 04:09:09;;;;;;;73.07;35.00;;;;;;;3.94;100.00;101614.28;10022308;28;20046;-65
2022/01/27 04:14:07;;;;;;;74.43;32.65;;;;;;;3.90;100.00;101623.94;10033791;29;20040;-65
2022/01/27 04:19:04;;;;;;;65.55;28.70;;;;;;;3.83;100.00;101613.34;10026148;28;20100;-66
2022/01/27 04:24:00;;;;;;;71.15;34.42;;;;;;;3.83;100.00;101613.34;10014381;29;20084;-63
2022/01/27 04:28:57;;;;;;;69.78;33.70;;;;;;;3.84;100.00;101598.72;10043786;28;20047;-63
2022/01/27 04:33:54;;;;;;;70.45;34.83;;;;;;;3.83;100.00;101613.34;10025820;28;20079;-65
2022/01/27 04:39:03;;;;;;;61.00;30.63;;;;;;;3.74;100.00;101593.22;10048765;28;20467;-65
2022/01/27 04:44:14;;;;;;;42.25;19.48;;;;;;;3.74;100.00;101591.31;10051628;29;20508;-65
2022/01/27 04:49:12;;;;;;;65.85;29.42;;;;;;;3.71;100.00;101569.34;10036413;29;20044;-68
2022/01/27 04:54:16;;;;;;;70.57;33.90;;;;;;;3.75;100.00;101578.59;10043793;29;20082;-67
2022/01/27 04:59:21;;;;;;;60.75;31.17;;;;;;;3.72;100.00;101568.28;10021294;29;20391;-65
2022/01/27 05:04:20;;;;;;;57.22;26.60;;;;;;;3.72;100.00;101592.63;10037203;28;20095;-64
2022/01/27 05:09:16;;;;;;;55.53;29.52;;;;;;;3.69;100.00;101552.53;10019991;29;20063;-64
2022/01/27 05:14:18;;;;;;;55.13;30.08;;;;;;;3.69;100.00;101547.97;10026860;28;20047;-67
2022/01/27 05:19:15;;;;;;;59.88;27.88;;;;;;;3.65;100.00;101529.78;10016106;29;20529;-67
2022/01/27 05:24:13;;;;;;;72.88;33.58;;;;;;;3.63;100.00;101540.84;10013056;29;20171;-65
2022/01/27 05:29:10;;;;;;;63.22;31.23;;;;;;;3.57;100.00;101523.75;10000999;29;20134;-65
2022/01/27 05:34:06;;;;;;;68.63;32.97;;;;;;;3.56;100.00;101511.28;10011982;28;20094;-68
2022/01/27 05:39:03;;;;;;;72.55;33.30;;;;;;;3.59;100.00;101513.47;10012506;29;20048;-73
2022/01/27 05:44:00;;;;;;;63.05;32.88;;;;;;;3.61;100.00;101507.03;10030183;28;20047;-70
2022/01/27 05:48:57;;;;;;;60.55;29.77;;;;;;;3.56;100.00;101511.28;10034854;28;20075;-72
2022/01/27 05:53:53;;;;;;;58.83;28.40;;;;;;;3.56;100.00;101500.47;10008557;28;20048;-70
2022/01/27 05:58:50;;;;;;;60.30;28.75;;;;;;;3.55;100.00;101487.19;10009071;29;20071;-70
2022/01/27 06:03:46;;;;;;;55.85;28.33;;;;;;;3.57;100.00;101485.06;9997544;29;20582;-69
2022/01/27 06:08:44;;;;;;;55.78;27.95;;;;;;;3.56;100.00;101468.03;9994832;28;20078;-69
2022/01/27 06:13:41;;;;;;;60.17;30.55;;;;;;;3.62;100.00;101470.78;9998296;29;20447;-71
2022/01/27 06:18:38;;;;;;;53.92;27.88;;;;;;;3.61;100.00;101455.63;10013812;29;20146;-70
2022/01/27 06:23:34;;;;;;;60.03;26.63;;;;;;;3.62;100.00;101473.50;10013031;28;20044;-72
2022/01/27 06:28:31;;;;;;;41.45;19.85;;;;;;;3.60;100.00;101438.59;10023593;28;20042;-71
2022/01/27 06:33:27;;;;;;;53.38;27.42;;;;;;;3.65;100.00;101445.97;10007811;28;20048;-71
2022/01/27 06:38:24;;;;;;;56.05;27.58;;;;;;;3.63;100.00;101451.59;10001238;28;20082;-70
2022/01/27 06:43:21;;;;;;;37.33;21.85;;;;;;;3.63;100.00;101467.03;10044058;28;20534;-71
2022/01/27 06:48:17;;;;;;;54.40;26.88;;;;;;;3.70;100.00;101446.00;10022082;29;20856;-71
2022/01/27 06:53:13;;;;;;;49.22;26.13;;;;;;;3.67;100.00;101419.47;10012786;29;20148;-71
2022/01/27 06:58:10;;;;;;;58.03;29.40;;;;;;;3.71;100.00;101409.75;10069782;28;20122;-71
2022/01/27 07:03:07;;;;;;;57.28;26.30;;;;;;;3.70;100.00;101410.84;10020832;29;20487;-71
2022/01/27 07:08:04;;;;;;;34.83;17.25;;;;;;;3.70;100.00;101424.38;10037630;28;20051;-71
2022/01/27 07:13:04;;;;;;;36.55;17.30;;;;;;;3.68;100.00;101427.31;10029476;29;20082;-70
2022/01/27 07:18:01;;;;;;;43.58;23.98;;;;;;;3.72;100.00;101427.63;10027843;28;20044;-70
2022/01/27 07:22:57;;;;;;;43.53;22.40;;;;;;;3.70;100.00;101417.06;10026882;28;20162;-71
2022/01/27 07:27:54;;;;;;;44.72;23.00;;;;;;;3.78;100.00;101403.09;10027041;28;20040;-71
2022/01/27 07:32:50;;;;;;;46.72;23.40;;;;;;;3.75;100.00;101394.66;10025171;28;20126;-71
2022/01/27 07:37:47;;;;;;;48.97;24.27;;;;;;;3.79;100.00;101390.38;10020715;29;20590;-71
2022/01/27 07:42:44;;;;;;;45.20;21.23;;;;;;;3.81;100.00;101382.84;10019318;29;20464;-71
2022/01/27 07:47:40;;;;;;;46.33;21.13;;;;;;;3.75;100.00;101405.47;10027797;28;20123;-71
2022/01/27 07:52:37;;;;;;;26.27;13.93;;;;;;;3.76;100.00;101380.91;10033184;29;20043;-72
2022/01/27 07:57:33;;;;;;;38.08;19.95;;;;;;;3.80;100.00;101375.78;10027869;28;20126;-71
2022/01/27 08:02:30;;;;;;;46.72;22.17;;;;;;;3.83;100.00;101364.47;10027140;28;20474;-71
2022/01/27 08:07:27;;;;;;;39.67;20.42;;;;;;;3.84;100.00;101366.06;10024555;29;20051;-71
2022/01/27 08:12:23;;;;;;;38.15;20.48;;;;;;;3.85;100.00;101367.69;10029486;29;20270;-71
2022/01/27 08:17:20;;;;;;;32.70;16.15;;;;;;;3.89;100.00;101358.00;10025716;28;20048;-71
2022/01/27 08:22:17;;;;;;;26.15;14.60;;;;;;;3.93;100.00;101352.91;10027623;28;20111;-71
2022/01/27 08:27:17;;;;;;;30.63;14.60;;;;;;;3.96;100.00;101353.19;10022319;29;20089;-71
2022/01/27 08:32:34;;;;;;;24.30;11.00;;;;;;;3.97;100.00;101348.63;10012599;29;20091;-72
2022/01/27 08:37:30;;;;;;;37.63;18.65;;;;;;;4.05;100.00;101339.19;10014501;28;20044;-71
2022/01/27 08:42:27;;;;;;;28.35;15.32;;;;;;;4.07;100.00;101353.28;10022312;29;20119;-71
2022/01/27 08:47:24;;;;;;;32.10;17.65;;;;;;;4.08;100.00;101327.84;10019241;29;20084;-72
2022/01/27 08:52:20;;;;;;;27.30;13.90;;;;;;;4.09;100.00;101345.72;10031956;28;20051;-71
2022/01/27 08:57:17;;;;;;;22.63;12.00;;;;;;;4.10;100.00;101320.28;10012052;28;20534;-71
2022/01/27 09:02:14;;;;;;;29.88;15.10;;;;;;;4.15;100.00;101323.03;10021521;28;20087;-71
2022/01/27 09:07:11;;;;;;;30.90;17.02;;;;;;;4.23;100.00;101325.25;10012524;28;20044;-72
2022/01/27 09:12:10;;;;;;;25.35;13.00;;;;;;;4.29;100.00;101340.44;10016593;28;20051;-72
2022/01/27 09:17:07;;;;;;;23.55;12.95;;;;;;;4.33;100.00;101325.31;10019215;29;20051;-72
2022/01/27 09:22:08;;;;;;;26.58;14.82;;;;;;;4.33;100.00;101311.78;10034278;28;20506;-72
2022/01/27 09:27:05;;;;;;;21.67;11.50;;;;;;;4.38;100.00;101306.41;10057937;28;20074;-72
2022/01/27 09:32:02;;;;;;;21.02;12.60;;;;;;;4.45;100.00;101321.59;10002405;29;20079;-72
2022/01/27 09:37:02;;;;;;;26.70;12.90;;;;;;;4.50;100.00;101297.25;10017146;28;20511;-72
2022/01/27 09:41:59;;;;;;;22.17;11.65;;;;;;;4.56;100.00;101298.91;10012736;29;20108;-72
2022/01/27 09:46:59;;;;;;;23.10;11.07;;;;;;;4.54;100.00;101303.78;10017357;28;20044;-72
2022/01/27 09:51:56;;;;;;;19.77;10.68;;;;;;;4.61;100.00;101304.34;10024943;28;20051;-72
2022/01/27 09:56:53;;;;;;;21.90;11.93;;;;;;;4.66;100.00;101306.28;10013854;28;20907;-72
2022/01/27 10:02:00;;;;;;;18.98;9.48;;;;;;;4.71;100.00;101309.84;10014093;29;20043;-73
2022/01/27 10:06:58;;;;;;;20.60;10.48;;;;;;;4.75;100.00;101305.50;10030773;28;20052;-73
2022/01/27 10:11:54;;;;;;;16.52;9.88;;;;;;;4.78;100.00;101326.66;10032366;29;20050;-73
2022/01/27 10:16:55;;;;;;;22.10;10.90;;;;;;;4.84;100.00;101306.63;10046658;28;20055;-72
2022/01/27 10:22:03;;;;;;;20.23;10.13;;;;;;;4.92;100.00;101289.06;10042014;29;20051;-72
2022/01/27 10:27:45;;;;;;;18.42;9.38;;;;;;;4.94;100.00;101302.31;10060816;28;20158;-72
2022/01/27 10:33:03;;;;;;;22.97;9.90;;;;;;;5.03;100.00;101323.22;10036837;28;20134;-68
2022/01/27 10:38:08;;;;;;;20.70;10.35;;;;;;;5.16;100.00;101305.66;10045736;28;20059;-68
2022/01/27 10:43:14;;;;;;;19.75;9.68;;;;;;;5.22;100.00;101307.31;10033995;28;20135;-68
2022/01/27 10:48:20;;;;;;;15.90;8.27;;;;;;;5.34;100.00;101317.91;10037916;29;20048;-68
2022/01/27 10:53:18;;;;;;;20.02;9.52;;;;;;;5.48;100.00;101310.06;10023034;29;20052;-68
2022/01/27 10:58:25;;;;;;;22.90;10.15;;;;;;;5.57;100.00;101321.19;10017462;28;20044;-68
2022/01/27 11:03:22;;;;;;;25.00;11.70;;;;;;;5.72;100.00;101309.56;10038025;28;20052;-67
2022/01/27 11:08:19;;;;;;;29.15;12.30;;;;;;;5.80;100.00;101312.53;10025760;29;20039;-68
2022/01/27 11:13:22;;;;;;;40.92;11.65;;;;;;;5.92;100.00;101306.84;10026910;28;20044;-67
2022/01/27 11:18:21;;;;;;;;;;;;;;;6.01;100.00;101290.84;10050880;29;20533;-67
2022/01/27 11:28:21;;;;;;;29.88;9.88;;;;;;;6.16;100.00;101285.41;10042786;28;20047;-67
2022/01/27 11:33:18;;;;;;;34.00;9.88;;;;;;;6.22;100.00;101286.19;10011069;29;20071;-68
2022/01/27 11:38:28;;;;;;;36.58;8.20;;;;;;;6.26;100.00;101290.00;10020210;29;20103;-67
2022/01/27 11:43:33;;;;;;;25.20;6.10;;;;;;;6.38;100.00;101298.66;10020526;29;20148;-67
2022/01/27 11:48:32;;;;;;;24.50;5.43;;;;;;;6.47;100.00;101291.56;10018675;28;20040;-68
2022/01/27 11:53:43;;;;;;;24.20;4.70;;;;;;;6.60;100.00;101283.94;10020633;29;20525;-68
2022/01/27 11:58:47;;;;;;;38.50;8.18;;;;;;;7.03;100.00;101282.41;10032696;28;20142;-67
2022/01/27 12:04:02;;;;;;;27.70;4.30;;;;;;;7.24;100.00;101269.50;10032705;29;20117;-68
2022/01/27 12:09:17;;;;;;;38.25;5.57;;;;;;;7.21;100.00;101267.31;10047159;28;20048;-67
2022/01/27 12:14:15;;;;;;;24.85;3.20;;;;;;;7.30;100.00;101254.75;10023160;29;20050;-67
2022/01/27 12:19:12;;;;;;;16.58;3.22;;;;;;;7.36;100.00;101248.19;10068637;29;20518;-67
2022/01/27 12:24:17;;;;;;;22.52;3.72;;;;;;;7.51;100.00;101241.00;10022317;28;20514;-67
2022/01/27 12:29:27;;;;;;;26.55;3.75;;;;;;;7.45;100.00;101245.69;10015774;29;20076;-68
2022/01/27 12:34:24;;;;;;;29.60;4.70;;;;;;;7.39;100.00;101235.91;10019838;29;20135;-68
2022/01/27 12:39:22;;;;;;;24.77;3.47;;;;;;;7.36;100.00;101231.84;10011158;29;20485;-69
2022/01/27 12:44:18;;;;;;;25.30;3.83;;;;;;;7.24;100.00;101217.81;10013098;28;20055;-68
2022/01/27 12:49:38;;;;;;;28.33;3.95;;;;;;;7.22;100.00;101233.59;10017345;28;20131;-68
2022/01/27 12:54:36;;;;;;;22.83;3.47;;;;;;;7.45;100.00;101233.97;10035415;29;20047;-68
2022/01/27 12:59:38;;;;;;;21.88;4.30;;;;;;;7.57;100.00;101215.38;10020840;28;20078;-68
2022/01/27 13:04:36;;;;;;;29.08;5.45;;;;;;;8.09;100.00;101211.03;10035941;29;20418;-68
2022/01/27 13:09:34;;;;;;;25.38;4.03;;;;;;;7.94;100.00;101224.84;10038658;28;20505;-68
2022/01/27 13:14:31;;;;;;;25.75;5.93;;;;;;;7.70;100.00;101227.50;10017749;28;20514;-68
2022/01/27 13:19:44;;;;;;;24.20;3.30;;;;;;;7.56;100.00;101208.28;10006332;29;21324;-68
2022/01/27 13:24:50;;;;;;;16.85;2.70;;;;;;;7.50;100.00;101199.38;10019010;29;20545;-68
2022/01/27 13:29:47;;;;;;;32.17;4.68;;;;;;;7.44;100.00;101216.03;10015433;28;20039;-68
2022/01/27 13:34:49;;;;;;;29.63;3.40;;;;;;;7.53;100.00;101215.13;10018171;29;20130;-67
2022/01/27 13:45:00;;;;;;;30.15;3.88;;;;;;;7.40;100.00;101232.09;10009536;28;20126;-68
2022/01/27 13:50:09;;;;;;;25.77;3.58;;;;;;;7.40;100.00;101231.28;10013050;28;20045;-68
2022/01/27 13:55:08;;;;;;;16.27;2.38;;;;;;;7.46;100.00;101230.16;10013530;28;20091;-67
2022/01/27 14:00:14;;;;;;;14.32;2.28;;;;;;;7.36;100.00;101241.94;10018539;28;20098;-67
2022/01/27 14:05:13;;;;;;;19.60;3.00;;;;;;;7.38;100.00;101226.94;10013695;28;20466;-67
2022/01/27 14:10:21;;;;;;;16.77;2.47;;;;;;;7.24;100.00;101228.69;10007934;29;20495;-66
2022/01/27 14:15:41;;;;;;;21.05;2.83;;;;;;;7.13;100.00;101216.25;10034119;28;20052;-67
2022/01/27 14:20:55;;;;;;;11.85;2.85;;;;;;;7.04;100.00;101245.13;10010139;28;20570;-69
2022/01/27 14:26:01;;;;;;;18.17;2.55;;;;;;;7.07;100.00;101220.09;10013329;29;20051;-69
2022/01/27 14:30:58;;;;;;;24.00;2.45;;;;;;;7.12;100.00;101228.22;10017738;28;20052;-68
2022/01/27 14:35:54;;;;;;;26.33;4.07;;;;;;;7.15;100.00;101233.09;10006738;28;20055;-68
2022/01/27 14:40:51;;;;;;;16.58;3.78;;;;;;;6.99;100.00;101226.13;10016073;29;20048;-69
2022/01/27 14:45:50;;;;;;;26.98;3.05;;;;;;;6.89;100.00;101216.94;10013250;28;20537;-68
2022/01/27 14:51:03;;;;;;;20.52;3.17;;;;;;;6.93;100.00;101228.06;10031302;28;20059;-69
2022/01/27 14:56:00;;;;;;;26.25;3.50;;;;;;;6.84;100.00;101246.03;10035836;28;20047;-69
2022/01/27 15:00:56;;;;;;;24.95;2.78;;;;;;;6.82;100.00;101227.28;10022942;29;20138;-69
2022/01/27 15:05:53;;;;;;;25.25;3.20;;;;;;;6.64;100.00;101249.69;10039537;28;20494;-70
2022/01/27 15:10:50;;;;;;;20.85;3.88;;;;;;;6.61;100.00;101237.44;10040706;28;20075;-70
2022/01/27 15:21:02;;;;;;;24.25;3.40;;;;;;;6.53;100.00;101233.41;10028129;29;20055;-70
2022/01/27 15:25:59;;;;;;;19.65;2.97;;;;;;;6.52;100.00;101231.78;10033576;29;20055;-70
2022/01/27 15:30:57;;;;;;;21.42;2.88;;;;;;;6.44;100.00;101232.34;10042907;29;20043;-69
2022/01/27 15:35:55;;;;;;;30.20;3.97;;;;;;;6.43;100.00;101236.19;10027773;29;20497;-67
2022/01/27 15:40:52;;;;;;;16.88;2.13;;;;;;;6.39;100.00;101224.22;10026392;28;20048;-68
2022/01/27 15:45:49;;;;;;;23.10;3.13;;;;;;;6.33;100.00;101241.63;10026735;29;20138;-67
2022/01/27 15:50:45;;;;;;;22.63;2.90;;;;;;;6.26;100.00;101251.97;10035059;28;20102;-68
2022/01/27 15:55:42;;;;;;;17.02;2.22;;;;;;;6.09;100.00;101263.94;10029805;28;20511;-67
2022/01/27 16:00:39;;;;;;;19.58;2.15;;;;;;;5.92;100.00;101268.84;10031347;29;20167;-67
2022/01/27 16:05:35;;;;;;;13.57;2.40;;;;;;;5.85;100.00;101268.31;10036012;28;20067;-67
2022/01/27 16:10:32;;;;;;;18.05;3.17;;;;;;;5.79;100.00;101275.63;10033467;28;20470;-67
2022/01/27 16:15:30;;;;;;;20.48;2.55;;;;;;;5.73;100.00;101265.03;10042667;28;20051;-67
2022/01/27 16:20:27;;;;;;;18.02;3.25;;;;;;;5.67;100.00;101278.63;10019634;29;20047;-67
2022/01/27 16:25:23;;;;;;;14.23;2.22;;;;;;;5.63;100.00;101288.38;10043600;28;20051;-67
2022/01/27 16:30:20;;;;;;;25.58;2.85;;;;;;;5.67;100.00;101289.47;10008448;29;20488;-67
2022/01/27 16:35:17;;;;;;;15.30;2.33;;;;;;;5.65;100.00;101269.94;10039901;28;20043;-69
2022/01/27 16:40:13;;;;;;;13.73;1.83;;;;;;;5.68;100.00;101291.06;10034786;28;20151;-69
2022/01/27 16:45:13;;;;;;;22.45;3.75;;;;;;;5.65;100.00;101286.19;10040633;28;20055;-69
2022/01/27 16:50:10;;;;;;;20.48;1.88;;;;;;;5.67;100.00;101294.88;10035099;28;20610;-67
2022/01/27 16:55:07;;;;;;;18.15;2.72;;;;;;;5.54;100.00;101295.41;10038173;28;20143;-69
2022/01/27 17:00:06;;;;;;;21.98;4.10;;;;;;;5.51;100.00;101290.53;10033736;29;20510;-69
2022/01/27 17:05:03;;;;;;;20.65;3.38;;;;;;;5.50;100.00;101283.50;10025926;28;20047;-69
2022/01/27 17:09:59;;;;;;;21.38;3.65;;;;;;;5.53;100.00;101299.22;10037592;29;20118;-69
2022/01/27 17:15:00;;;;;;;21.23;3.17;;;;;;;5.36;100.00;101293.22;10037095;28;20056;-69
2022/01/27 17:19:58;;;;;;;14.48;2.00;;;;;;;5.23;100.00;101319.78;10024519;29;20107;-69
2022/01/27 17:24:55;;;;;;;22.90;3.60;;;;;;;5.16;100.00;101313.78;9996321;28;20130;-68
2022/01/27 17:29:52;;;;;;;23.92;2.63;;;;;;;5.15;100.00;101306.75;10014041;29;20044;-69
2022/01/27 17:34:48;;;;;;;23.77;4.20;;;;;;;5.21;100.00;101292.09;10008160;29;20593;-69
2022/01/27 17:39:45;;;;;;;25.83;4.45;;;;;;;5.24;100.00;101299.72;10032886;29;20466;-69
2022/01/27 17:44:47;;;;;;;27.55;2.97;;;;;;;5.30;100.00;101299.72;10057288;29;20059;-69
2022/01/27 17:49:43;;;;;;;25.95;3.80;;;;;;;5.27;100.00;101299.19;10022099;29;20079;-69
2022/01/27 17:54:40;;;;;;;29.20;3.35;;;;;;;5.28;100.00;101300.78;10010639;29;20111;-69
2022/01/27 17:59:36;;;;;;;26.08;3.72;;;;;;;5.30;100.00;101322.22;10008874;29;20048;-68
2022/01/27 18:04:37;;;;;;;22.40;3.78;;;;;;;5.35;100.00;101307.88;10009874;28;20072;-69
2022/01/27 18:09:37;;;;;;;17.33;3.45;;;;;;;5.36;100.00;101326.59;10014106;29;20040;-68
2022/01/27 18:14:33;;;;;;;14.88;2.53;;;;;;;5.36;100.00;101320.34;10022531;28;20052;-68
2022/01/27 18:19:30;;;;;;;21.98;2.53;;;;;;;5.33;100.00;101320.88;10011281;28;20558;-68
2022/01/27 18:24:27;;;;;;;22.83;2.40;;;;;;;5.21;100.00;101327.34;10035497;28;20058;-69
2022/01/27 18:29:23;;;;;;;24.08;3.13;;;;;;;5.22;100.00;101339.00;10018373;28;20159;-69
2022/01/27 18:34:20;;;;;;;25.80;3.45;;;;;;;5.15;100.00;101330.31;10022404;28;20075;-69
2022/01/27 18:39:16;;;;;;;24.27;3.45;;;;;;;5.10;100.00;101312.13;10029303;28;20040;-69
2022/01/27 18:44:13;;;;;;;27.13;3.72;;;;;;;5.05;100.00;101321.06;10021954;28;20067;-69
2022/01/27 18:49:13;;;;;;;27.25;2.17;;;;;;;5.07;100.00;101312.69;10029127;29;20106;-69
2022/01/27 18:54:09;;;;;;;27.42;3.08;;;;;;;5.04;100.00;101329.47;10036383;28;20057;-69
2022/01/27 18:59:06;;;;;;;23.67;2.78;;;;;;;4.94;100.00;101330.22;10023877;28;20055;-69
2022/01/27 19:04:02;;;;;;;24.58;3.40;;;;;;;4.90;100.00;101317.47;10018266;29;20130;-69
2022/01/27 19:08:59;;;;;;;24.17;2.95;;;;;;;4.83;100.00;101323.97;10030882;28;20047;-68
2022/01/27 19:13:56;;;;;;;28.77;4.35;;;;;;;4.85;100.00;101331.84;10020697;29;20051;-69
2022/01/27 19:18:52;;;;;;;28.20;4.05;;;;;;;4.78;100.00;101342.91;10019979;28;20418;-68
2022/01/27 19:23:51;;;;;;;30.48;4.20;;;;;;;4.74;100.00;101358.06;10040658;28;20060;-68
2022/01/27 19:29:08;;;;;;;29.98;3.65;;;;;;;4.73;100.00;101361.84;10031931;28;20075;-68
2022/01/27 19:34:06;;;;;;;29.88;3.80;;;;;;;4.73;100.00;101375.38;10015304;29;20572;-69
2022/01/27 19:39:03;;;;;;;25.27;2.50;;;;;;;4.71;100.00;101379.44;10028564;28;20056;-68
2022/01/27 19:44:00;;;;;;;21.85;3.92;;;;;;;4.76;100.00;101382.19;10014969;29;20063;-73
2022/01/27 19:48:57;;;;;;;26.20;3.35;;;;;;;4.74;100.00;101396.00;10011683;29;20074;-72
2022/01/27 19:53:54;;;;;;;15.75;2.70;;;;;;;4.82;100.00;101403.63;10030625;28;20071;-73
2022/01/27 19:58:50;;;;;;;23.77;3.08;;;;;;;4.75;100.00;101408.44;10024335;28;20052;-73
2022/01/27 20:03:47;;;;;;;21.98;2.45;;;;;;;4.76;100.00;101401.97;10020411;28;20080;-72
2022/01/27 20:08:44;;;;;;;21.30;3.80;;;;;;;4.66;100.00;101426.28;10011044;29;20059;-73
2022/01/27 20:13:42;;;;;;;16.33;2.67;;;;;;;4.60;100.00;101421.91;10029552;29;20055;-74
2022/01/27 20:18:38;;;;;;;20.55;2.22;;;;;;;4.52;100.00;101425.09;10021234;28;20047;-73
2022/01/27 20:23:36;;;;;;;12.48;1.90;;;;;;;4.48;100.00;101434.81;10017231;28;20052;-73
2022/01/27 20:28:34;;;;;;;21.88;3.17;;;;;;;4.41;100.00;101430.44;10010356;28;20043;-71
2022/01/27 20:33:33;;;;;;;19.48;3.65;;;;;;;4.42;100.00;101404.97;10015693;28;20120;-71
2022/01/27 20:38:29;;;;;;;15.90;2.35;;;;;;;4.46;100.00;101436.97;10018206;28;20059;-70
2022/01/27 20:43:26;;;;;;;18.83;2.90;;;;;;;4.46;100.00;101464.06;10006736;29;20131;-70
2022/01/27 20:48:24;;;;;;;19.83;3.25;;;;;;;4.37;100.00;101467.22;10007486;28;20122;-69
2022/01/27 20:53:22;;;;;;;20.75;3.47;;;;;;;4.39;100.00;101480.53;10015817;28;20099;-71
2022/01/27 20:58:19;;;;;;;22.90;3.08;;;;;;;4.37;100.00;101488.88;10019557;28;20051;-70
2022/01/27 21:03:20;;;;;;;19.52;2.85;;;;;;;4.40;100.00;101488.38;10015354;29;20453;-70
2022/01/27 21:08:21;;;;;;;12.93;2.90;;;;;;;4.44;100.00;101480.56;10039938;28;20637;-70
2022/01/27 21:13:20;;;;;;;22.05;3.17;;;;;;;4.52;100.00;101484.66;10028084;29;20080;-70
2022/01/27 21:18:16;;;;;;;23.75;4.18;;;;;;;4.58;100.00;101472.81;10019400;28;20051;-70
2022/01/27 21:23:13;;;;;;;19.33;3.13;;;;;;;4.59;100.00;101486.06;10025871;28;20052;-70
2022/01/27 21:28:11;;;;;;;22.80;4.20;;;;;;;4.65;100.00;101478.81;10024333;29;20048;-70
2022/01/27 21:33:07;;;;;;;29.55;3.97;;;;;;;4.68;100.00;101472.06;10005368;29;20668;-70
2022/01/27 21:38:05;;;;;;;29.25;4.43;;;;;;;4.67;100.00;101487.50;10041003;28;20051;-70
2022/01/27 21:43:01;;;;;;;23.17;3.67;;;;;;;4.75;100.00;101519.53;10017275;28;20079;-70
2022/01/27 21:47:58;;;;;;;31.88;6.53;;;;;;;4.76;100.00;101518.47;10009223;29;20074;-70
2022/01/27 21:52:55;;;;;;;23.55;3.85;;;;;;;4.78;100.00;101527.16;10015502;28;20054;-71
2022/01/27 21:57:54;;;;;;;32.25;5.07;;;;;;;4.80;100.00;101541.28;10032485;28;20047;-71
2022/01/27 22:02:52;;;;;;;27.67;4.07;;;;;;;4.79;100.00;101522.56;10013579;28;20115;-72
2022/01/27 22:07:49;;;;;;;40.17;4.68;;;;;;;4.81;100.00;101547.50;10050936;28;20090;-71
2022/01/27 22:12:45;;;;;;;22.38;3.47;;;;;;;4.79;100.00;101539.63;10033764;29;20510;-72
2022/01/27 22:17:42;;;;;;;20.80;3.42;;;;;;;4.78;100.00;101559.66;10048813;28;20126;-71
2022/01/27 22:22:41;;;;;;;35.15;4.95;;;;;;;4.79;100.00;101569.41;10024171;29;20090;-71
2022/01/27 22:27:38;;;;;;;17.85;3.30;;;;;;;4.80;100.00;101552.09;10049618;28;20582;-69
2022/01/27 22:32:34;;;;;;;25.58;3.72;;;;;;;4.82;100.00;101566.19;10032874;29;20059;-69
2022/01/27 22:37:31;;;;;;;33.17;4.57;;;;;;;4.75;100.00;101564.78;10042193;29;20087;-70
2022/01/27 22:42:27;;;;;;;37.20;5.03;;;;;;;4.77;100.00;101563.44;10025515;29;20040;-70
2022/01/27 22:47:25;;;;;;;25.98;3.70;;;;;;;4.77;100.00;101563.44;10049750;29;20119;-71
2022/01/27 22:52:22;;;;;;;22.30;4.75;;;;;;;4.75;100.00;101581.84;10026092;28;20138;-69
2022/01/27 22:57:18;;;;;;;28.02;4.60;;;;;;;4.75;100.00;101576.41;10023684;28;20525;-69
2022/01/27 23:02:15;;;;;;;26.27;4.82;;;;;;;4.72;100.00;101605.94;10012196;28;20059;-70
2022/01/27 23:07:11;;;;;;;34.30;5.75;;;;;;;4.71;100.00;101599.72;10029596;28;20474;-69
2022/01/27 23:12:15;;;;;;;22.27;2.80;;;;;;;4.73;100.00;101605.66;10040425;29;20118;-70
2022/01/27 23:17:35;;;;;;;20.70;3.40;;;;;;;4.63;100.00;101627.25;10038079;28;20106;-70
2022/01/27 23:22:46;;;;;;;21.30;2.72;;;;;;;4.55;100.00;101635.81;10027322;29;20138;-70